Tripoli, Libya
Current Conditions -  °F | °C
As of 2:00 PM on Wednesday 26 Nov 2014 (Local Time) from DTTJ Reporting Station
Scattered Clouds Scattered Clouds  
Wind Chill: 72°   Ceiling: Unl
Heat Index: 72°   Visibility: 6mi
Dew Point: 63°   Wind: 5mph
Humidity: 73%   Direction: 150°SSE
Pressure: 29.94"   Gusts: NA
Location:  32.87°N, 13.18°E
Report Text: DTTJ 261100Z 15004KT 9999 SCT020 SCT030 22/17 Q1014 NOSIG
Loading
Personal Weather Stations






























Interactive Weather Map New forecast layout! Learn more

10-Day Weather Forecast

Advertisements
Track Severe Weather on mobile